sensor_id;sensor_type;location;lat;lon;timestamp;P1;durP1;ratioP1;P2;durP2;ratioP2
53151;SDS011;39234;53.158;6.322;2022-08-01T00:00:36;12.60;;;7.38;;
53151;SDS011;39234;53.158;6.322;2022-08-01T00:03:02;10.40;;;6.30;;
53151;SDS011;39234;53.158;6.322;2022-08-01T00:05:28;8.20;;;5.68;;
53151;SDS011;39234;53.158;6.322;2022-08-01T00:07:56;8.65;;;5.88;;
53151;SDS011;39234;53.158;6.322;2022-08-01T00:10:21;8.10;;;5.35;;
53151;SDS011;39234;53.158;6.322;2022-08-01T00:12:47;8.13;;;5.15;;
53151;SDS011;39234;53.158;6.322;2022-08-01T00:15:14;7.10;;;4.97;;
53151;SDS011;39234;53.158;6.322;2022-08-01T00:17:41;10.65;;;5.10;;
53151;SDS011;39234;53.158;6.322;2022-08-01T00:20:08;6.40;;;4.28;;
53151;SDS011;39234;53.158;6.322;2022-08-01T00:22:35;7.78;;;4.45;;
53151;SDS011;39234;53.158;6.322;2022-08-01T00:25:02;8.00;;;4.10;;
53151;SDS011;39234;53.158;6.322;2022-08-01T00:27:29;5.97;;;3.40;;
53151;SDS011;39234;53.158;6.322;2022-08-01T00:29:56;5.13;;;3.25;;
53151;SDS011;39234;53.158;6.322;2022-08-01T00:32:22;6.07;;;3.10;;
53151;SDS011;39234;53.158;6.322;2022-08-01T00:34:48;5.30;;;3.72;;
53151;SDS011;39234;53.158;6.322;2022-08-01T00:37:13;7.63;;;3.90;;
53151;SDS011;39234;53.158;6.322;2022-08-01T00:39:39;6.82;;;4.43;;
53151;SDS011;39234;53.158;6.322;2022-08-01T00:42:08;9.20;;;4.43;;
53151;SDS011;39234;53.158;6.322;2022-08-01T00:44:35;6.97;;;4.30;;
53151;SDS011;39234;53.158;6.322;2022-08-01T00:47:02;9.00;;;4.60;;
53151;SDS011;39234;53.158;6.322;2022-08-01T00:49:30;9.43;;;5.10;;
53151;SDS011;39234;53.158;6.322;2022-08-01T00:51:55;11.55;;;5.22;;
53151;SDS011;39234;53.158;6.322;2022-08-01T00:54:23;8.48;;;4.82;;
53151;SDS011;39234;53.158;6.322;2022-08-01T00:56:50;10.35;;;4.88;;
53151;SDS011;39234;53.158;6.322;2022-08-01T00:59:17;8.10;;;5.35;;
53151;SDS011;39234;53.158;6.322;2022-08-01T01:01:43;6.38;;;4.53;;
53151;SDS011;39234;53.158;6.322;2022-08-01T01:04:08;8.13;;;5.32;;
53151;SDS011;39234;53.158;6.322;2022-08-01T01:09:15;12.35;;;5.70;;
53151;SDS011;39234;53.158;6.322;2022-08-01T01:11:56;8.93;;;5.38;;
53151;SDS011;39234;53.158;6.322;2022-08-01T01:14:34;9.05;;;5.97;;
53151;SDS011;39234;53.158;6.322;2022-08-01T01:17:05;8.52;;;5.50;;
53151;SDS011;39234;53.158;6.322;2022-08-01T01:19:33;9.45;;;4.80;;
53151;SDS011;39234;53.158;6.322;2022-08-01T01:22:21;6.63;;;4.03;;
53151;SDS011;39234;53.158;6.322;2022-08-01T01:30:39;10.43;;;2.95;;
53151;SDS011;39234;53.158;6.322;2022-08-01T01:33:08;5.43;;;2.10;;
53151;SDS011;39234;53.158;6.322;2022-08-01T01:35:36;5.90;;;2.30;;
53151;SDS011;39234;53.158;6.322;2022-08-01T01:38:09;8.30;;;2.58;;
53151;SDS011;39234;53.158;6.322;2022-08-01T01:40:45;6.72;;;2.58;;
53151;SDS011;39234;53.158;6.322;2022-08-01T01:43:12;7.72;;;2.47;;
53151;SDS011;39234;53.158;6.322;2022-08-01T01:45:40;7.03;;;2.33;;
53151;SDS011;39234;53.158;6.322;2022-08-01T01:48:07;7.38;;;2.53;;
53151;SDS011;39234;53.158;6.322;2022-08-01T01:50:35;9.57;;;2.22;;
53151;SDS011;39234;53.158;6.322;2022-08-01T01:53:02;7.72;;;2.25;;
53151;SDS011;39234;53.158;6.322;2022-08-01T01:55:30;8.63;;;2.40;;
53151;SDS011;39234;53.158;6.322;2022-08-01T01:57:57;7.45;;;2.20;;
53151;SDS011;39234;53.158;6.322;2022-08-01T02:00:24;9.45;;;2.45;;
53151;SDS011;39234;53.158;6.322;2022-08-01T02:02:51;8.55;;;2.40;;
53151;SDS011;39234;53.158;6.322;2022-08-01T02:05:18;11.63;;;2.30;;
53151;SDS011;39234;53.158;6.322;2022-08-01T02:07:46;10.75;;;3.90;;
53151;SDS011;39234;53.158;6.322;2022-08-01T02:10:14;11.15;;;2.50;;
53151;SDS011;39234;53.158;6.322;2022-08-01T02:12:43;11.45;;;2.95;;
53151;SDS011;39234;53.158;6.322;2022-08-01T02:15:11;7.43;;;2.60;;
53151;SDS011;39234;53.158;6.322;2022-08-01T02:17:40;14.38;;;2.90;;
53151;SDS011;39234;53.158;6.322;2022-08-01T02:20:08;12.35;;;2.85;;
53151;SDS011;39234;53.158;6.322;2022-08-01T02:22:37;10.43;;;3.03;;
53151;SDS011;39234;53.158;6.322;2022-08-01T02:30:32;12.10;;;3.70;;
53151;SDS011;39234;53.158;6.322;2022-08-01T02:33:05;15.70;;;3.63;;
53151;SDS011;39234;53.158;6.322;2022-08-01T02:35:41;14.68;;;2.90;;
53151;SDS011;39234;53.158;6.322;2022-08-01T02:38:09;13.07;;;3.72;;
53151;SDS011;39234;53.158;6.322;2022-08-01T02:40:38;17.83;;;3.35;;
53151;SDS011;39234;53.158;6.322;2022-08-01T02:43:09;16.93;;;3.27;;
53151;SDS011;39234;53.158;6.322;2022-08-01T02:45:39;19.42;;;3.70;;
53151;SDS011;39234;53.158;6.322;2022-08-01T02:48:10;14.13;;;3.60;;
53151;SDS011;39234;53.158;6.322;2022-08-01T02:50:39;11.27;;;3.20;;
53151;SDS011;39234;53.158;6.322;2022-08-01T02:53:08;13.63;;;3.10;;
53151;SDS011;39234;53.158;6.322;2022-08-01T02:55:38;11.20;;;3.10;;
53151;SDS011;39234;53.158;6.322;2022-08-01T02:58:06;15.20;;;3.40;;
53151;SDS011;39234;53.158;6.322;2022-08-01T03:00:33;14.27;;;3.63;;
53151;SDS011;39234;53.158;6.322;2022-08-01T03:03:00;13.15;;;3.63;;
53151;SDS011;39234;53.158;6.322;2022-08-01T03:05:29;16.73;;;4.30;;
53151;SDS011;39234;53.158;6.322;2022-08-01T03:07:57;14.43;;;4.60;;
53151;SDS011;39234;53.158;6.322;2022-08-01T03:10:26;16.20;;;4.30;;
53151;SDS011;39234;53.158;6.322;2022-08-01T03:12:53;12.63;;;3.97;;
53151;SDS011;39234;53.158;6.322;2022-08-01T03:15:21;15.18;;;4.38;;
53151;SDS011;39234;53.158;6.322;2022-08-01T03:17:48;13.57;;;4.25;;
53151;SDS011;39234;53.158;6.322;2022-08-01T03:20:16;14.15;;;4.03;;
53151;SDS011;39234;53.158;6.322;2022-08-01T03:22:45;13.05;;;3.90;;
53151;SDS011;39234;53.158;6.322;2022-08-01T03:25:14;21.73;;;4.90;;
53151;SDS011;39234;53.158;6.322;2022-08-01T03:27:42;19.83;;;4.53;;
53151;SDS011;39234;53.158;6.322;2022-08-01T03:30:09;21.88;;;4.70;;
53151;SDS011;39234;53.158;6.322;2022-08-01T03:32:35;19.42;;;4.95;;
53151;SDS011;39234;53.158;6.322;2022-08-01T03:35:05;25.00;;;4.78;;
53151;SDS011;39234;53.158;6.322;2022-08-01T03:37:42;20.27;;;4.20;;
53151;SDS011;39234;53.158;6.322;2022-08-01T03:40:13;13.02;;;3.95;;
53151;SDS011;39234;53.158;6.322;2022-08-01T03:42:42;16.92;;;3.90;;
53151;SDS011;39234;53.158;6.322;2022-08-01T03:45:11;20.67;;;3.53;;
53151;SDS011;39234;53.158;6.322;2022-08-01T03:47:47;18.25;;;3.92;;
53151;SDS011;39234;53.158;6.322;2022-08-01T03:50:16;18.85;;;3.83;;
53151;SDS011;39234;53.158;6.322;2022-08-01T03:52:45;18.60;;;3.85;;
53151;SDS011;39234;53.158;6.322;2022-08-01T03:55:12;17.80;;;4.13;;
53151;SDS011;39234;53.158;6.322;2022-08-01T03:57:41;15.48;;;3.58;;
53151;SDS011;39234;53.158;6.322;2022-08-01T04:00:09;18.40;;;4.13;;
53151;SDS011;39234;53.158;6.322;2022-08-01T04:02:35;19.58;;;4.28;;
53151;SDS011;39234;53.158;6.322;2022-08-01T04:05:03;14.50;;;3.90;;
53151;SDS011;39234;53.158;6.322;2022-08-01T04:07:31;18.20;;;3.80;;
53151;SDS011;39234;53.158;6.322;2022-08-01T04:09:58;23.48;;;4.40;;
53151;SDS011;39234;53.158;6.322;2022-08-01T04:12:24;28.23;;;4.78;;
53151;SDS011;39234;53.158;6.322;2022-08-01T04:14:50;19.38;;;3.17;;
53151;SDS011;39234;53.158;6.322;2022-08-01T04:17:16;14.90;;;3.45;;
53151;SDS011;39234;53.158;6.322;2022-08-01T04:19:43;20.55;;;3.95;;
53151;SDS011;39234;53.158;6.322;2022-08-01T04:22:10;16.10;;;2.75;;
53151;SDS011;39234;53.158;6.322;2022-08-01T04:24:38;21.42;;;4.32;;
53151;SDS011;39234;53.158;6.322;2022-08-01T04:27:11;15.48;;;2.88;;
53151;SDS011;39234;53.158;6.322;2022-08-01T04:29:40;21.58;;;3.88;;
53151;SDS011;39234;53.158;6.322;2022-08-01T04:32:08;18.95;;;3.38;;
53151;SDS011;39234;53.158;6.322;2022-08-01T04:34:38;15.05;;;3.00;;
53151;SDS011;39234;53.158;6.322;2022-08-01T04:37:06;22.20;;;4.03;;
53151;SDS011;39234;53.158;6.322;2022-08-01T04:39:35;19.90;;;3.67;;
53151;SDS011;39234;53.158;6.322;2022-08-01T04:42:04;16.92;;;3.35;;
53151;SDS011;39234;53.158;6.322;2022-08-01T04:44:31;22.45;;;3.88;;
53151;SDS011;39234;53.158;6.322;2022-08-01T04:46:59;22.10;;;3.38;;
53151;SDS011;39234;53.158;6.322;2022-08-01T04:49:29;21.27;;;3.53;;
53151;SDS011;39234;53.158;6.322;2022-08-01T04:51:59;22.25;;;3.67;;
53151;SDS011;39234;53.158;6.322;2022-08-01T04:54:28;19.23;;;3.15;;
53151;SDS011;39234;53.158;6.322;2022-08-01T04:56:55;20.30;;;3.53;;
53151;SDS011;39234;53.158;6.322;2022-08-01T04:59:25;14.65;;;3.30;;
53151;SDS011;39234;53.158;6.322;2022-08-01T05:04:33;18.35;;;4.05;;
53151;SDS011;39234;53.158;6.322;2022-08-01T05:06:59;14.43;;;2.97;;
53151;SDS011;39234;53.158;6.322;2022-08-01T05:09:25;17.08;;;3.65;;
53151;SDS011;39234;53.158;6.322;2022-08-01T05:11:51;15.27;;;2.80;;
53151;SDS011;39234;53.158;6.322;2022-08-01T05:14:19;17.10;;;3.47;;
53151;SDS011;39234;53.158;6.322;2022-08-01T05:16:45;24.95;;;3.80;;
53151;SDS011;39234;53.158;6.322;2022-08-01T05:19:11;18.02;;;3.20;;
53151;SDS011;39234;53.158;6.322;2022-08-01T05:21:37;17.38;;;4.10;;
53151;SDS011;39234;53.158;6.322;2022-08-01T05:24:03;19.02;;;3.08;;
53151;SDS011;39234;53.158;6.322;2022-08-01T05:26:29;18.00;;;3.22;;
53151;SDS011;39234;53.158;6.322;2022-08-01T05:28:55;18.50;;;3.83;;
53151;SDS011;39234;53.158;6.322;2022-08-01T05:31:21;21.08;;;3.80;;
53151;SDS011;39234;53.158;6.322;2022-08-01T05:33:48;12.60;;;3.13;;
53151;SDS011;39234;53.158;6.322;2022-08-01T05:36:14;20.73;;;3.40;;
53151;SDS011;39234;53.158;6.322;2022-08-01T05:38:40;22.25;;;3.05;;
53151;SDS011;39234;53.158;6.322;2022-08-01T05:41:08;17.45;;;3.30;;
53151;SDS011;39234;53.158;6.322;2022-08-01T05:43:33;17.75;;;3.22;;
53151;SDS011;39234;53.158;6.322;2022-08-01T05:45:59;22.15;;;3.55;;
53151;SDS011;39234;53.158;6.322;2022-08-01T05:48:26;21.13;;;3.10;;
53151;SDS011;39234;53.158;6.322;2022-08-01T05:50:52;19.95;;;4.15;;
53151;SDS011;39234;53.158;6.322;2022-08-01T05:53:19;18.30;;;3.10;;
53151;SDS011;39234;53.158;6.322;2022-08-01T05:55:44;16.48;;;3.10;;
53151;SDS011;39234;53.158;6.322;2022-08-01T05:58:10;21.75;;;3.63;;
53151;SDS011;39234;53.158;6.322;2022-08-01T06:00:36;19.42;;;3.20;;
53151;SDS011;39234;53.158;6.322;2022-08-01T06:03:02;22.70;;;4.03;;
53151;SDS011;39234;53.158;6.322;2022-08-01T06:05:29;19.10;;;3.17;;
53151;SDS011;39234;53.158;6.322;2022-08-01T06:07:55;21.15;;;3.47;;
53151;SDS011;39234;53.158;6.322;2022-08-01T06:10:21;21.30;;;3.95;;
53151;SDS011;39234;53.158;6.322;2022-08-01T06:12:46;19.45;;;3.70;;
53151;SDS011;39234;53.158;6.322;2022-08-01T06:15:12;26.85;;;3.75;;
53151;SDS011;39234;53.158;6.322;2022-08-01T06:17:38;20.45;;;3.65;;
53151;SDS011;39234;53.158;6.322;2022-08-01T06:20:04;24.30;;;3.78;;
53151;SDS011;39234;53.158;6.322;2022-08-01T06:22:31;18.58;;;3.85;;
53151;SDS011;39234;53.158;6.322;2022-08-01T06:24:59;16.77;;;4.00;;
53151;SDS011;39234;53.158;6.322;2022-08-01T06:27:24;16.75;;;3.58;;
53151;SDS011;39234;53.158;6.322;2022-08-01T06:29:51;17.13;;;3.08;;
53151;SDS011;39234;53.158;6.322;2022-08-01T06:32:19;18.23;;;2.85;;
53151;SDS011;39234;53.158;6.322;2022-08-01T06:34:45;18.52;;;3.20;;
53151;SDS011;39234;53.158;6.322;2022-08-01T06:37:11;19.33;;;2.85;;
53151;SDS011;39234;53.158;6.322;2022-08-01T06:39:39;21.02;;;3.20;;
53151;SDS011;39234;53.158;6.322;2022-08-01T06:42:05;19.63;;;3.05;;
53151;SDS011;39234;53.158;6.322;2022-08-01T06:44:30;21.25;;;3.38;;
53151;SDS011;39234;53.158;6.322;2022-08-01T06:46:58;19.23;;;2.95;;
53151;SDS011;39234;53.158;6.322;2022-08-01T06:49:24;17.63;;;3.03;;
53151;SDS011;39234;53.158;6.322;2022-08-01T06:51:50;15.98;;;2.95;;
53151;SDS011;39234;53.158;6.322;2022-08-01T06:54:15;19.02;;;3.38;;
53151;SDS011;39234;53.158;6.322;2022-08-01T06:56:41;15.52;;;2.92;;
53151;SDS011;39234;53.158;6.322;2022-08-01T06:59:07;21.02;;;3.05;;
53151;SDS011;39234;53.158;6.322;2022-08-01T07:01:33;17.00;;;2.95;;
53151;SDS011;39234;53.158;6.322;2022-08-01T07:04:01;13.55;;;3.05;;
53151;SDS011;39234;53.158;6.322;2022-08-01T07:06:27;13.40;;;2.28;;
53151;SDS011;39234;53.158;6.322;2022-08-01T07:08:53;15.98;;;2.58;;
53151;SDS011;39234;53.158;6.322;2022-08-01T07:11:19;13.57;;;2.60;;
53151;SDS011;39234;53.158;6.322;2022-08-01T07:13:46;16.98;;;2.67;;
53151;SDS011;39234;53.158;6.322;2022-08-01T07:16:12;13.43;;;3.25;;
53151;SDS011;39234;53.158;6.322;2022-08-01T07:18:40;15.00;;;2.30;;
53151;SDS011;39234;53.158;6.322;2022-08-01T07:21:06;15.60;;;2.38;;
53151;SDS011;39234;53.158;6.322;2022-08-01T07:23:32;12.90;;;2.60;;
53151;SDS011;39234;53.158;6.322;2022-08-01T07:26:02;14.48;;;2.20;;
53151;SDS011;39234;53.158;6.322;2022-08-01T07:28:29;17.55;;;2.78;;
53151;SDS011;39234;53.158;6.322;2022-08-01T07:30:55;12.70;;;1.98;;
53151;SDS011;39234;53.158;6.322;2022-08-01T07:33:20;12.93;;;2.33;;
53151;SDS011;39234;53.158;6.322;2022-08-01T07:35:47;13.55;;;2.72;;
53151;SDS011;39234;53.158;6.322;2022-08-01T07:38:13;10.85;;;2.13;;
53151;SDS011;39234;53.158;6.322;2022-08-01T07:40:42;17.80;;;2.50;;
53151;SDS011;39234;53.158;6.322;2022-08-01T07:43:09;13.65;;;1.95;;
53151;SDS011;39234;53.158;6.322;2022-08-01T07:45:35;10.45;;;2.00;;
53151;SDS011;39234;53.158;6.322;2022-08-01T07:48:04;12.90;;;2.33;;
53151;SDS011;39234;53.158;6.322;2022-08-01T07:50:32;13.40;;;2.97;;
53151;SDS011;39234;53.158;6.322;2022-08-01T07:52:59;12.38;;;2.15;;
53151;SDS011;39234;53.158;6.322;2022-08-01T07:55:25;16.73;;;2.50;;
53151;SDS011;39234;53.158;6.322;2022-08-01T07:57:53;12.55;;;2.20;;
53151;SDS011;39234;53.158;6.322;2022-08-01T08:00:18;13.52;;;2.15;;
53151;SDS011;39234;53.158;6.322;2022-08-01T08:02:44;9.15;;;2.40;;
53151;SDS011;39234;53.158;6.322;2022-08-01T08:05:13;12.23;;;1.80;;
53151;SDS011;39234;53.158;6.322;2022-08-01T08:07:39;10.32;;;2.20;;
53151;SDS011;39234;53.158;6.322;2022-08-01T08:10:05;9.90;;;1.92;;
53151;SDS011;39234;53.158;6.322;2022-08-01T08:12:33;11.82;;;1.90;;
53151;SDS011;39234;53.158;6.322;2022-08-01T08:14:58;9.70;;;1.83;;
53151;SDS011;39234;53.158;6.322;2022-08-01T08:17:25;11.70;;;2.85;;
53151;SDS011;39234;53.158;6.322;2022-08-01T08:19:51;8.82;;;2.40;;
53151;SDS011;39234;53.158;6.322;2022-08-01T08:22:17;11.25;;;2.00;;
53151;SDS011;39234;53.158;6.322;2022-08-01T08:24:43;11.60;;;1.85;;
53151;SDS011;39234;53.158;6.322;2022-08-01T08:27:10;13.07;;;1.88;;
53151;SDS011;39234;53.158;6.322;2022-08-01T08:29:36;13.10;;;2.13;;
53151;SDS011;39234;53.158;6.322;2022-08-01T08:32:02;8.82;;;1.42;;
53151;SDS011;39234;53.158;6.322;2022-08-01T08:34:29;11.43;;;1.80;;
53151;SDS011;39234;53.158;6.322;2022-08-01T08:36:55;10.80;;;1.80;;
53151;SDS011;39234;53.158;6.322;2022-08-01T08:39:22;11.52;;;2.13;;
53151;SDS011;39234;53.158;6.322;2022-08-01T08:41:51;15.60;;;3.00;;
53151;SDS011;39234;53.158;6.322;2022-08-01T08:44:18;11.48;;;1.73;;
53151;SDS011;39234;53.158;6.322;2022-08-01T08:46:48;10.15;;;1.60;;
53151;SDS011;39234;53.158;6.322;2022-08-01T08:49:17;14.13;;;1.95;;
53151;SDS011;39234;53.158;6.322;2022-08-01T08:51:47;12.27;;;1.92;;
53151;SDS011;39234;53.158;6.322;2022-08-01T08:54:14;11.23;;;1.55;;
53151;SDS011;39234;53.158;6.322;2022-08-01T08:56:40;12.02;;;2.20;;
53151;SDS011;39234;53.158;6.322;2022-08-01T08:59:10;11.32;;;2.47;;
53151;SDS011;39234;53.158;6.322;2022-08-01T09:01:38;11.05;;;2.00;;
53151;SDS011;39234;53.158;6.322;2022-08-01T09:04:05;14.55;;;2.05;;
53151;SDS011;39234;53.158;6.322;2022-08-01T09:06:31;8.85;;;1.40;;
53151;SDS011;39234;53.158;6.322;2022-08-01T09:08:57;9.95;;;1.90;;
53151;SDS011;39234;53.158;6.322;2022-08-01T09:11:23;13.13;;;2.15;;
53151;SDS011;39234;53.158;6.322;2022-08-01T09:16:35;10.07;;;1.65;;
53151;SDS011;39234;53.158;6.322;2022-08-01T09:19:09;8.38;;;1.58;;
53151;SDS011;39234;53.158;6.322;2022-08-01T09:21:58;10.32;;;1.88;;
53151;SDS011;39234;53.158;6.322;2022-08-01T09:24:25;9.52;;;1.95;;
53151;SDS011;39234;53.158;6.322;2022-08-01T09:26:52;10.65;;;1.90;;
53151;SDS011;39234;53.158;6.322;2022-08-01T09:29:26;9.25;;;1.90;;
53151;SDS011;39234;53.158;6.322;2022-08-01T09:31:53;9.98;;;1.95;;
53151;SDS011;39234;53.158;6.322;2022-08-01T09:34:24;9.93;;;1.60;;
53151;SDS011;39234;53.158;6.322;2022-08-01T09:36:56;11.98;;;2.25;;
53151;SDS011;39234;53.158;6.322;2022-08-01T09:39:30;8.98;;;1.85;;
53151;SDS011;39234;53.158;6.322;2022-08-01T09:42:02;12.23;;;1.95;;
53151;SDS011;39234;53.158;6.322;2022-08-01T09:44:44;9.18;;;1.42;;
53151;SDS011;39234;53.158;6.322;2022-08-01T09:47:13;7.30;;;1.85;;
53151;SDS011;39234;53.158;6.322;2022-08-01T09:49:39;11.30;;;2.00;;
53151;SDS011;39234;53.158;6.322;2022-08-01T09:52:24;8.27;;;1.33;;
53151;SDS011;39234;53.158;6.322;2022-08-01T09:54:52;9.98;;;1.63;;
53151;SDS011;39234;53.158;6.322;2022-08-01T09:57:26;5.80;;;1.30;;
53151;SDS011;39234;53.158;6.322;2022-08-01T09:59:54;7.35;;;1.80;;
53151;SDS011;39234;53.158;6.322;2022-08-01T10:04:56;8.02;;;1.63;;
53151;SDS011;39234;53.158;6.322;2022-08-01T10:07:22;10.48;;;1.58;;
53151;SDS011;39234;53.158;6.322;2022-08-01T10:09:48;8.10;;;1.38;;
53151;SDS011;39234;53.158;6.322;2022-08-01T10:12:14;10.43;;;1.48;;
53151;SDS011;39234;53.158;6.322;2022-08-01T10:14:44;9.57;;;1.85;;
53151;SDS011;39234;53.158;6.322;2022-08-01T10:17:12;11.90;;;1.65;;
53151;SDS011;39234;53.158;6.322;2022-08-01T10:19:40;11.55;;;1.75;;
53151;SDS011;39234;53.158;6.322;2022-08-01T10:22:07;9.60;;;1.88;;
53151;SDS011;39234;53.158;6.322;2022-08-01T10:24:35;7.75;;;1.40;;
53151;SDS011;39234;53.158;6.322;2022-08-01T10:27:08;8.90;;;1.43;;
53151;SDS011;39234;53.158;6.322;2022-08-01T10:29:57;7.75;;;2.00;;
53151;SDS011;39234;53.158;6.322;2022-08-01T10:32:22;12.02;;;1.70;;
53151;SDS011;39234;53.158;6.322;2022-08-01T10:34:49;10.80;;;1.80;;
53151;SDS011;39234;53.158;6.322;2022-08-01T10:37:16;8.38;;;1.60;;
53151;SDS011;39234;53.158;6.322;2022-08-01T10:39:42;12.25;;;1.88;;
53151;SDS011;39234;53.158;6.322;2022-08-01T10:42:09;10.07;;;1.60;;
53151;SDS011;39234;53.158;6.322;2022-08-01T10:44:37;9.65;;;1.58;;
53151;SDS011;39234;53.158;6.322;2022-08-01T10:47:12;8.80;;;1.27;;
53151;SDS011;39234;53.158;6.322;2022-08-01T10:49:43;5.45;;;1.30;;
53151;SDS011;39234;53.158;6.322;2022-08-01T10:52:31;7.88;;;1.27;;
53151;SDS011;39234;53.158;6.322;2022-08-01T10:55:07;9.45;;;1.73;;
53151;SDS011;39234;53.158;6.322;2022-08-01T10:57:46;12.10;;;2.50;;
53151;SDS011;39234;53.158;6.322;2022-08-01T11:00:19;10.60;;;1.67;;
53151;SDS011;39234;53.158;6.322;2022-08-01T11:02:59;8.15;;;1.45;;
53151;SDS011;39234;53.158;6.322;2022-08-01T11:05:27;7.80;;;1.60;;
53151;SDS011;39234;53.158;6.322;2022-08-01T11:08:03;8.65;;;1.40;;
53151;SDS011;39234;53.158;6.322;2022-08-01T11:10:38;12.45;;;1.73;;
53151;SDS011;39234;53.158;6.322;2022-08-01T11:13:10;9.35;;;1.77;;
53151;SDS011;39234;53.158;6.322;2022-08-01T11:15:39;7.55;;;1.15;;
53151;SDS011;39234;53.158;6.322;2022-08-01T11:20:57;13.65;;;1.75;;
53151;SDS011;39234;53.158;6.322;2022-08-01T11:23:25;8.27;;;1.83;;
53151;SDS011;39234;53.158;6.322;2022-08-01T11:28:19;8.60;;;1.30;;
53151;SDS011;39234;53.158;6.322;2022-08-01T11:30:49;9.45;;;1.52;;
53151;SDS011;39234;53.158;6.322;2022-08-01T11:33:17;8.02;;;1.40;;
53151;SDS011;39234;53.158;6.322;2022-08-01T11:44:04;11.00;;;1.50;;
53151;SDS011;39234;53.158;6.322;2022-08-01T11:54:43;8.77;;;1.42;;
53151;SDS011;39234;53.158;6.322;2022-08-01T11:57:14;4.38;;;1.08;;
53151;SDS011;39234;53.158;6.322;2022-08-01T11:59:46;6.30;;;1.08;;
53151;SDS011;39234;53.158;6.322;2022-08-01T12:02:27;6.82;;;1.60;;
53151;SDS011;39234;53.158;6.322;2022-08-01T12:04:55;12.45;;;1.50;;
53151;SDS011;39234;53.158;6.322;2022-08-01T12:07:30;7.82;;;1.40;;
53151;SDS011;39234;53.158;6.322;2022-08-01T12:09:58;5.40;;;1.10;;
53151;SDS011;39234;53.158;6.322;2022-08-01T12:12:30;9.25;;;2.08;;
53151;SDS011;39234;53.158;6.322;2022-08-01T12:14:58;8.93;;;0.93;;
53151;SDS011;39234;53.158;6.322;2022-08-01T12:17:29;9.23;;;1.42;;
53151;SDS011;39234;53.158;6.322;2022-08-01T12:19:56;6.60;;;1.00;;
53151;SDS011;39234;53.158;6.322;2022-08-01T12:22:23;7.03;;;1.48;;
53151;SDS011;39234;53.158;6.322;2022-08-01T12:24:50;8.50;;;1.75;;
53151;SDS011;39234;53.158;6.322;2022-08-01T12:27:28;6.97;;;1.13;;
53151;SDS011;39234;53.158;6.322;2022-08-01T12:29:55;8.30;;;1.55;;
53151;SDS011;39234;53.158;6.322;2022-08-01T12:34:53;9.93;;;1.38;;
53151;SDS011;39234;53.158;6.322;2022-08-01T12:37:23;8.02;;;1.33;;
53151;SDS011;39234;53.158;6.322;2022-08-01T12:39:49;6.15;;;1.20;;
53151;SDS011;39234;53.158;6.322;2022-08-01T12:42:15;5.85;;;1.00;;
53151;SDS011;39234;53.158;6.322;2022-08-01T12:44:41;8.60;;;1.23;;
53151;SDS011;39234;53.158;6.322;2022-08-01T12:47:09;8.07;;;1.20;;
53151;SDS011;39234;53.158;6.322;2022-08-01T12:49:36;7.43;;;1.30;;
53151;SDS011;39234;53.158;6.322;2022-08-01T12:52:05;7.60;;;1.30;;
53151;SDS011;39234;53.158;6.322;2022-08-01T12:54:31;8.07;;;1.33;;
53151;SDS011;39234;53.158;6.322;2022-08-01T12:57:25;5.32;;;1.00;;
53151;SDS011;39234;53.158;6.322;2022-08-01T13:00:07;4.80;;;1.20;;
53151;SDS011;39234;53.158;6.322;2022-08-01T13:02:39;6.80;;;1.13;;
53151;SDS011;39234;53.158;6.322;2022-08-01T13:05:06;8.75;;;1.52;;
53151;SDS011;39234;53.158;6.322;2022-08-01T13:10:10;11.77;;;1.50;;
53151;SDS011;39234;53.158;6.322;2022-08-01T13:12:39;7.00;;;1.92;;
53151;SDS011;39234;53.158;6.322;2022-08-01T13:15:19;6.30;;;1.20;;
53151;SDS011;39234;53.158;6.322;2022-08-01T13:17:47;6.55;;;1.20;;
53151;SDS011;39234;53.158;6.322;2022-08-01T13:20:22;5.13;;;1.27;;
53151;SDS011;39234;53.158;6.322;2022-08-01T13:22:50;9.13;;;1.95;;
53151;SDS011;39234;53.158;6.322;2022-08-01T13:25:17;8.15;;;1.20;;
53151;SDS011;39234;53.158;6.322;2022-08-01T13:27:43;9.90;;;1.63;;
53151;SDS011;39234;53.158;6.322;2022-08-01T13:30:10;8.05;;;1.13;;
53151;SDS011;39234;53.158;6.322;2022-08-01T13:32:57;5.90;;;1.20;;
53151;SDS011;39234;53.158;6.322;2022-08-01T13:35:24;6.68;;;1.10;;
53151;SDS011;39234;53.158;6.322;2022-08-01T13:37:50;4.60;;;1.02;;
53151;SDS011;39234;53.158;6.322;2022-08-01T13:40:23;8.82;;;1.50;;
53151;SDS011;39234;53.158;6.322;2022-08-01T13:42:51;7.32;;;1.25;;
53151;SDS011;39234;53.158;6.322;2022-08-01T13:45:16;5.70;;;1.10;;
53151;SDS011;39234;53.158;6.322;2022-08-01T13:47:42;6.13;;;1.40;;
53151;SDS011;39234;53.158;6.322;2022-08-01T13:50:10;7.50;;;1.40;;
53151;SDS011;39234;53.158;6.322;2022-08-01T13:52:35;6.30;;;1.20;;
53151;SDS011;39234;53.158;6.322;2022-08-01T13:55:01;5.93;;;1.27;;
53151;SDS011;39234;53.158;6.322;2022-08-01T13:57:29;6.85;;;1.30;;
53151;SDS011;39234;53.158;6.322;2022-08-01T13:59:55;8.13;;;1.63;;
53151;SDS011;39234;53.158;6.322;2022-08-01T14:02:22;7.13;;;1.30;;
53151;SDS011;39234;53.158;6.322;2022-08-01T14:04:52;8.68;;;1.50;;
53151;SDS011;39234;53.158;6.322;2022-08-01T14:07:19;7.03;;;1.65;;
53151;SDS011;39234;53.158;6.322;2022-08-01T14:09:45;6.95;;;1.30;;
53151;SDS011;39234;53.158;6.322;2022-08-01T14:12:12;5.43;;;1.15;;
53151;SDS011;39234;53.158;6.322;2022-08-01T14:14:38;7.40;;;1.20;;
53151;SDS011;39234;53.158;6.322;2022-08-01T14:17:04;5.95;;;1.25;;
53151;SDS011;39234;53.158;6.322;2022-08-01T14:19:30;5.57;;;1.08;;
53151;SDS011;39234;53.158;6.322;2022-08-01T14:21:56;5.93;;;1.15;;
53151;SDS011;39234;53.158;6.322;2022-08-01T14:24:22;6.07;;;1.25;;
53151;SDS011;39234;53.158;6.322;2022-08-01T14:26:51;7.22;;;1.40;;
53151;SDS011;39234;53.158;6.322;2022-08-01T14:29:17;6.07;;;1.42;;
53151;SDS011;39234;53.158;6.322;2022-08-01T14:31:42;8.43;;;1.80;;
53151;SDS011;39234;53.158;6.322;2022-08-01T14:34:08;6.57;;;0.98;;
53151;SDS011;39234;53.158;6.322;2022-08-01T14:36:34;11.95;;;1.52;;
53151;SDS011;39234;53.158;6.322;2022-08-01T14:39:00;6.72;;;1.33;;
53151;SDS011;39234;53.158;6.322;2022-08-01T14:41:25;8.30;;;1.25;;
53151;SDS011;39234;53.158;6.322;2022-08-01T14:43:52;8.63;;;1.30;;
53151;SDS011;39234;53.158;6.322;2022-08-01T14:46:17;7.40;;;1.48;;
53151;SDS011;39234;53.158;6.322;2022-08-01T14:48:43;7.28;;;1.20;;
53151;SDS011;39234;53.158;6.322;2022-08-01T14:51:08;7.80;;;1.38;;
53151;SDS011;39234;53.158;6.322;2022-08-01T14:53:34;9.75;;;1.83;;
53151;SDS011;39234;53.158;6.322;2022-08-01T14:56:04;7.55;;;1.38;;
53151;SDS011;39234;53.158;6.322;2022-08-01T14:58:31;8.50;;;1.60;;
53151;SDS011;39234;53.158;6.322;2022-08-01T15:00:57;8.80;;;1.40;;
53151;SDS011;39234;53.158;6.322;2022-08-01T15:03:27;7.30;;;1.33;;
53151;SDS011;39234;53.158;6.322;2022-08-01T15:05:52;7.22;;;1.48;;
53151;SDS011;39234;53.158;6.322;2022-08-01T15:08:18;5.75;;;1.52;;
53151;SDS011;39234;53.158;6.322;2022-08-01T15:10:44;9.52;;;1.70;;
53151;SDS011;39234;53.158;6.322;2022-08-01T15:13:10;8.45;;;1.83;;
53151;SDS011;39234;53.158;6.322;2022-08-01T15:15:35;6.93;;;1.30;;
53151;SDS011;39234;53.158;6.322;2022-08-01T15:18:01;8.27;;;1.77;;
53151;SDS011;39234;53.158;6.322;2022-08-01T15:20:26;8.88;;;1.77;;
53151;SDS011;39234;53.158;6.322;2022-08-01T15:22:53;8.65;;;1.45;;
53151;SDS011;39234;53.158;6.322;2022-08-01T15:25:20;5.82;;;1.38;;
53151;SDS011;39234;53.158;6.322;2022-08-01T15:27:46;9.27;;;2.20;;
53151;SDS011;39234;53.158;6.322;2022-08-01T15:30:11;10.77;;;1.35;;
53151;SDS011;39234;53.158;6.322;2022-08-01T15:32:37;10.93;;;2.10;;
53151;SDS011;39234;53.158;6.322;2022-08-01T15:35:03;7.18;;;1.33;;